createdAt,value
2023-03-21T00:02:36.554Z,9.60
2023-03-21T00:05:42.299Z,9.55
2023-03-21T00:08:46.392Z,9.51
2023-03-21T00:11:50.622Z,9.51
2023-03-21T00:14:56.361Z,9.53
2023-03-21T00:18:11.417Z,9.52
2023-03-21T00:24:42.408Z,9.49
2023-03-21T00:28:05.319Z,9.47
2023-03-21T00:31:10.874Z,9.45
2023-03-21T00:34:15.037Z,9.42
2023-03-21T00:37:19.357Z,9.42
2023-03-21T00:40:29.578Z,9.44
2023-03-21T00:43:37.500Z,9.43
2023-03-21T00:46:49.378Z,9.41
2023-03-21T00:49:58.359Z,9.40
2023-03-21T00:53:02.382Z,9.36
2023-03-21T00:56:06.773Z,9.34
2023-03-21T00:59:10.711Z,9.34
2023-03-21T01:02:22.867Z,9.34
2023-03-21T01:05:48.448Z,9.34
2023-03-21T01:08:53.567Z,9.34
2023-03-21T01:11:57.912Z,9.35
2023-03-21T01:15:01.920Z,9.36
2023-03-21T01:18:05.934Z,9.40
2023-03-21T01:21:14.830Z,9.44
2023-03-21T01:24:18.888Z,9.41
2023-03-21T01:27:22.905Z,9.35
2023-03-21T01:30:31.291Z,9.33
2023-03-21T01:33:40.248Z,9.32
2023-03-21T01:36:44.505Z,9.34
2023-03-21T01:39:52.992Z,9.36
2023-03-21T01:42:57.024Z,9.35
2023-03-21T01:46:32.242Z,9.34
2023-03-21T01:49:52.686Z,9.30
2023-03-21T01:53:04.759Z,9.28
2023-03-21T01:56:17.583Z,9.25
2023-03-21T01:59:43.100Z,9.26
2023-03-21T02:03:11.658Z,9.25
2023-03-21T02:06:46.944Z,9.23
2023-03-21T02:09:59.536Z,9.19
2023-03-21T02:13:09.745Z,9.19
2023-03-21T02:16:26.515Z,9.19
2023-03-21T02:19:52.721Z,9.20
2023-03-21T02:23:22.966Z,9.20
2023-03-21T02:26:42.941Z,9.18
2023-03-21T02:30:04.657Z,9.11
2023-03-21T02:33:55.114Z,9.09
2023-03-21T02:37:28.879Z,9.08
2023-03-21T02:40:46.120Z,9.09
2023-03-21T02:44:19.390Z,9.09
2023-03-21T02:47:26.776Z,9.05
2023-03-21T02:50:48.801Z,9.02
2023-03-21T02:54:24.853Z,9.02
2023-03-21T02:57:31.353Z,9.04
2023-03-21T03:00:44.797Z,9.07
2023-03-21T03:03:50.029Z,9.07
2023-03-21T03:07:11.864Z,9.08
2023-03-21T03:10:23.353Z,9.07
2023-03-21T03:13:46.609Z,9.08
2023-03-21T03:17:28.294Z,9.08
2023-03-21T03:21:14.321Z,9.10
2023-03-21T03:24:34.129Z,9.08
2023-03-21T03:27:43.952Z,9.06
2023-03-21T03:31:05.568Z,9.05
2023-03-21T03:34:24.062Z,9.07
2023-03-21T03:37:32.660Z,9.09
2023-03-21T03:40:44.156Z,9.10
2023-03-21T03:43:59.537Z,9.07
2023-03-21T03:47:13.453Z,9.06
2023-03-21T03:50:34.127Z,9.07
2023-03-21T03:53:44.759Z,9.04
2023-03-21T03:56:49.435Z,9.04
2023-03-21T03:59:53.715Z,9.05
2023-03-21T04:03:22.266Z,9.00
2023-03-21T04:06:29.118Z,8.98
2023-03-21T04:09:43.642Z,8.96
2023-03-21T04:12:50.343Z,8.93
2023-03-21T04:16:01.615Z,8.93
2023-03-21T04:19:05.632Z,8.93
2023-03-21T04:22:09.650Z,8.94
2023-03-21T04:25:27.435Z,8.95
2023-03-21T04:28:37.390Z,8.95
2023-03-21T04:32:16.440Z,8.92
2023-03-21T04:35:25.213Z,8.89
2023-03-21T04:38:31.009Z,8.89
2023-03-21T04:41:43.092Z,8.87
2023-03-21T04:44:48.731Z,8.87
2023-03-21T04:47:52.772Z,8.88
2023-03-21T04:50:56.960Z,8.87
2023-03-21T04:54:00.979Z,8.86
2023-03-21T04:57:04.976Z,8.85
2023-03-21T05:00:15.993Z,8.84
2023-03-21T05:03:22.109Z,8.87
2023-03-21T05:06:27.891Z,8.90
2023-03-21T05:09:32.160Z,8.91
2023-03-21T05:12:36.123Z,8.93
2023-03-21T05:15:40.447Z,8.94
2023-03-21T05:18:44.465Z,8.94
2023-03-21T05:21:53.611Z,8.95
2023-03-21T05:25:01.092Z,8.98
2023-03-21T05:28:22.320Z,9.01
2023-03-21T05:31:26.535Z,9.02
2023-03-21T05:34:38.445Z,9.01
2023-03-21T05:37:42.435Z,8.99
2023-03-21T05:40:48.216Z,8.97
2023-03-21T05:43:52.228Z,8.95
2023-03-21T05:46:56.240Z,8.96
2023-03-21T05:50:05.866Z,8.97
2023-03-21T05:53:10.219Z,9.01
2023-03-21T05:56:14.738Z,9.03
2023-03-21T05:59:24.183Z,9.06
2023-03-21T06:02:30.640Z,9.07
2023-03-21T06:05:37.771Z,9.06
2023-03-21T06:08:42.888Z,9.05
2023-03-21T06:11:49.479Z,9.09
2023-03-21T06:15:19.803Z,9.12
2023-03-21T06:18:31.096Z,9.13
2023-03-21T06:21:54.188Z,9.13
2023-03-21T06:24:58.674Z,9.15
2023-03-21T06:28:02.747Z,9.19
2023-03-21T06:31:07.483Z,9.24
2023-03-21T06:34:11.957Z,9.27
2023-03-21T06:37:16.351Z,9.28
2023-03-21T06:40:20.601Z,9.29
2023-03-21T06:43:25.009Z,9.27
2023-03-21T06:46:29.939Z,9.26
2023-03-21T06:49:34.533Z,9.27
2023-03-21T06:52:44.033Z,9.29
2023-03-21T06:55:51.565Z,9.31
2023-03-21T06:58:57.089Z,9.31
2023-03-21T07:02:21.669Z,9.29
2023-03-21T07:05:38.237Z,9.28
2023-03-21T07:08:42.726Z,9.28
2023-03-21T07:11:47.865Z,9.28
2023-03-21T07:14:51.944Z,9.28
2023-03-21T07:17:55.994Z,9.26
2023-03-21T07:21:00.532Z,9.21
2023-03-21T07:24:04.544Z,9.22
2023-03-21T07:27:08.667Z,9.26
2023-03-21T07:30:13.473Z,9.30
2023-03-21T07:33:17.514Z,9.34
2023-03-21T07:36:22.166Z,9.37
2023-03-21T07:39:27.488Z,9.39
2023-03-21T07:45:41.103Z,9.36
2023-03-21T07:48:45.164Z,9.37
2023-03-21T07:51:49.181Z,9.37
2023-03-21T07:54:53.427Z,9.35
2023-03-21T07:57:57.474Z,9.32
2023-03-21T08:01:02.432Z,9.29
2023-03-21T08:04:06.902Z,9.32
2023-03-21T08:07:12.012Z,9.39
2023-03-21T08:10:17.341Z,9.48
2023-03-21T08:13:21.552Z,9.56
2023-03-21T08:16:25.895Z,9.66
2023-03-21T08:19:30.030Z,9.74
2023-03-21T08:22:35.481Z,9.83
2023-03-21T08:25:40.071Z,9.92
2023-03-21T08:28:45.284Z,9.98
2023-03-21T08:31:49.253Z,10.05
2023-03-21T08:34:53.182Z,10.09
2023-03-21T08:37:57.903Z,10.09
2023-03-21T08:41:02.031Z,10.03
2023-03-21T08:44:07.080Z,10.05
2023-03-21T08:47:11.191Z,10.07
2023-03-21T08:50:18.777Z,10.10
2023-03-21T08:53:22.805Z,10.16
2023-03-21T08:56:26.822Z,10.23
2023-03-21T08:59:31.146Z,10.28
2023-03-21T09:02:35.502Z,10.28
2023-03-21T09:05:40.216Z,10.23
2023-03-21T09:08:46.466Z,10.27
2023-03-21T09:11:52.451Z,10.33
2023-03-21T09:14:57.071Z,10.33
2023-03-21T09:18:13.477Z,10.36
2023-03-21T09:21:20.159Z,10.40
2023-03-21T09:24:24.261Z,10.47
2023-03-21T09:27:28.401Z,10.52
2023-03-21T09:30:35.027Z,10.49
2023-03-21T09:33:42.417Z,10.47
2023-03-21T09:36:48.623Z,10.50
2023-03-21T09:39:52.725Z,10.56
2023-03-21T09:43:22.773Z,10.64
2023-03-21T09:46:45.562Z,10.70
2023-03-21T09:50:07.516Z,10.75
2023-03-21T09:53:31.015Z,10.79
2023-03-21T09:56:40.988Z,10.88
2023-03-21T09:59:46.342Z,10.94
2023-03-21T10:02:55.515Z,11.00
2023-03-21T10:06:05.527Z,10.99
2023-03-21T10:09:21.629Z,10.98
2023-03-21T10:12:30.775Z,10.94
2023-03-21T10:15:34.772Z,10.92
2023-03-21T10:18:42.274Z,10.94
2023-03-21T10:22:00.615Z,11.02
2023-03-21T10:25:07.404Z,11.11
2023-03-21T10:28:21.866Z,11.13
2023-03-21T10:31:28.784Z,11.09
2023-03-21T10:38:01.651Z,10.69
2023-03-21T10:41:06.201Z,10.48
2023-03-21T10:44:18.578Z,10.35
2023-03-21T10:47:30.321Z,10.27
2023-03-21T10:50:35.876Z,10.24
2023-03-21T10:53:46.233Z,10.19
2023-03-21T10:57:19.242Z,10.18
2023-03-21T11:00:29.190Z,10.17
2023-03-21T11:03:38.755Z,10.18
2023-03-21T11:06:46.951Z,10.23
2023-03-21T11:09:58.928Z,10.30
2023-03-21T11:13:07.662Z,10.35
2023-03-21T11:16:46.259Z,10.39
2023-03-21T11:20:09.108Z,10.41
2023-03-21T11:23:13.679Z,10.43
2023-03-21T11:26:32.349Z,10.48
2023-03-21T11:29:40.649Z,10.60
2023-03-21T11:32:44.768Z,10.73
2023-03-21T11:36:07.444Z,10.79
2023-03-21T11:39:12.155Z,10.77
2023-03-21T11:42:27.848Z,10.70
2023-03-21T11:45:35.893Z,10.64
2023-03-21T11:48:45.401Z,10.60
2023-03-21T11:52:02.296Z,10.62
2023-03-21T11:55:38.241Z,10.72
2023-03-21T11:59:01.707Z,10.90
2023-03-21T12:02:25.484Z,11.06
2023-03-21T12:05:37.610Z,11.20
2023-03-21T12:08:41.856Z,11.32
2023-03-21T12:11:52.525Z,11.38
2023-03-21T12:14:59.658Z,11.44
2023-03-21T12:18:34.359Z,11.43
2023-03-21T12:22:13.490Z,11.44
2023-03-21T12:25:28.056Z,11.43
2023-03-21T12:28:57.572Z,11.42
2023-03-21T12:32:21.146Z,11.35
2023-03-21T12:35:50.044Z,11.32
2023-03-21T12:38:54.775Z,11.26
2023-03-21T12:42:05.043Z,11.17
2023-03-21T12:45:18.161Z,11.06
2023-03-21T12:48:58.515Z,11.02
2023-03-21T12:52:14.633Z,10.98
2023-03-21T12:55:22.919Z,10.94
2023-03-21T12:58:29.735Z,10.93
2023-03-21T13:01:37.127Z,10.95
2023-03-21T13:04:48.726Z,10.99
2023-03-21T13:08:14.966Z,11.01
2023-03-21T13:11:25.278Z,11.12
2023-03-21T13:14:34.125Z,11.21
2023-03-21T13:17:45.914Z,11.20
2023-03-21T13:20:52.425Z,11.19
2023-03-21T13:24:04.031Z,11.16
2023-03-21T13:27:20.618Z,11.17
2023-03-21T13:30:27.632Z,11.13
2023-03-21T13:33:34.737Z,11.09
2023-03-21T13:36:39.734Z,10.99
2023-03-21T13:39:46.568Z,10.88
2023-03-21T13:42:54.216Z,10.78
2023-03-21T13:46:10.470Z,10.69
2023-03-21T13:49:27.067Z,10.66
2023-03-21T13:52:31.168Z,10.66
2023-03-21T13:55:44.731Z,10.70
2023-03-21T13:59:02.947Z,10.75
2023-03-21T14:02:33.484Z,10.78
2023-03-21T14:05:39.321Z,10.93
2023-03-21T14:08:49.195Z,11.15
2023-03-21T14:11:56.656Z,11.28
2023-03-21T14:15:19.016Z,11.39
2023-03-21T14:18:35.009Z,11.43
2023-03-21T14:21:51.669Z,11.47
2023-03-21T14:24:57.179Z,11.51
2023-03-21T14:28:04.579Z,11.55
2023-03-21T14:31:16.206Z,11.60
2023-03-21T14:34:22.239Z,11.63
2023-03-21T14:37:32.906Z,11.63
2023-03-21T14:40:37.300Z,11.60
2023-03-21T14:43:41.466Z,11.60
2023-03-21T14:46:45.492Z,11.59
2023-03-21T14:49:51.191Z,11.60
2023-03-21T14:52:55.883Z,11.59
2023-03-21T14:56:08.898Z,11.56
2023-03-21T14:59:15.997Z,11.53
2023-03-21T15:02:25.787Z,11.52
2023-03-21T15:05:37.381Z,11.52
2023-03-21T15:08:55.987Z,11.54
2023-03-21T15:12:01.565Z,11.55
2023-03-21T15:15:07.026Z,11.57
2023-03-21T15:18:16.438Z,11.58
2023-03-21T15:21:23.848Z,11.57
2023-03-21T15:24:36.953Z,11.53
2023-03-21T15:27:43.151Z,11.51
2023-03-21T15:30:50.497Z,11.50
2023-03-21T15:33:56.160Z,11.52
2023-03-21T15:37:08.587Z,11.58
2023-03-21T15:40:18.616Z,11.60
2023-03-21T15:43:22.655Z,11.64
2023-03-21T15:46:43.744Z,11.65
2023-03-21T15:49:55.645Z,11.66
2023-03-21T15:53:02.963Z,11.71
2023-03-21T15:56:16.148Z,11.70
2023-03-21T15:59:24.092Z,11.65
2023-03-21T16:02:31.016Z,11.59
2023-03-21T16:05:35.313Z,11.48
2023-03-21T16:08:46.269Z,11.38
2023-03-21T16:11:51.738Z,11.31
2023-03-21T16:14:56.274Z,11.22
2023-03-21T16:18:03.768Z,11.13
2023-03-21T16:21:12.184Z,11.00
2023-03-21T16:24:16.299Z,10.92
2023-03-21T16:27:22.347Z,10.87
2023-03-21T16:30:26.380Z,10.81
2023-03-21T16:33:30.384Z,10.75
2023-03-21T16:36:37.240Z,10.70
2023-03-21T16:39:42.036Z,10.66
2023-03-21T16:42:46.128Z,10.61
2023-03-21T16:45:50.182Z,10.51
2023-03-21T16:48:57.873Z,10.37
2023-03-21T16:52:02.168Z,10.27
2023-03-21T16:55:08.740Z,10.18
2023-03-21T16:58:15.929Z,10.06
2023-03-21T17:01:21.342Z,9.96
2023-03-21T17:04:25.508Z,9.88
2023-03-21T17:07:29.977Z,9.79
2023-03-21T17:10:34.049Z,9.68
2023-03-21T17:13:38.454Z,9.55
2023-03-21T17:16:43.482Z,9.42
2023-03-21T17:19:47.533Z,9.31
2023-03-21T17:22:51.758Z,9.19
2023-03-21T17:25:56.383Z,9.08
2023-03-21T17:29:00.790Z,8.97
2023-03-21T17:32:05.034Z,8.88
2023-03-21T17:35:09.632Z,8.78
2023-03-21T17:38:18.000Z,8.69
2023-03-21T17:41:22.902Z,8.60
2023-03-21T17:44:26.926Z,8.53
2023-03-21T17:47:31.151Z,8.44
2023-03-21T17:50:37.397Z,8.36
2023-03-21T17:53:43.474Z,8.26
2023-03-21T17:56:48.524Z,8.18
2023-03-21T17:59:52.733Z,8.13
2023-03-21T18:02:57.387Z,8.09
2023-03-21T18:06:01.286Z,8.00
2023-03-21T18:09:12.038Z,7.92
2023-03-21T18:12:16.273Z,7.84
2023-03-21T18:15:21.923Z,7.77
2023-03-21T18:18:27.367Z,7.62
2023-03-21T18:21:32.859Z,7.48
2023-03-21T18:24:37.360Z,7.35
2023-03-21T18:28:06.845Z,7.27
2023-03-21T18:31:12.551Z,7.24
2023-03-21T18:34:19.910Z,7.25
2023-03-21T18:37:23.939Z,7.22
2023-03-21T18:40:28.467Z,7.18
2023-03-21T18:46:57.955Z,6.98
2023-03-21T18:50:13.593Z,6.91
2023-03-21T18:53:18.314Z,6.86
2023-03-21T18:57:13.140Z,6.82
2023-03-21T18:59:47.048Z,6.78
2023-03-21T19:03:04.239Z,6.75
2023-03-21T19:06:16.319Z,6.72
2023-03-21T19:09:29.565Z,6.66
2023-03-21T19:12:35.874Z,6.56
2023-03-21T19:15:41.338Z,6.46
2023-03-21T19:18:54.370Z,6.37
2023-03-21T19:22:00.930Z,6.29
2023-03-21T19:25:06.084Z,6.27
2023-03-21T19:28:10.080Z,6.26
2023-03-21T19:31:14.402Z,6.25
2023-03-21T19:34:19.050Z,6.24
2023-03-21T19:37:23.050Z,6.20
2023-03-21T19:40:27.181Z,6.14
2023-03-21T19:43:33.361Z,6.06
2023-03-21T19:46:37.865Z,5.96
2023-03-21T19:50:32.986Z,5.90
2023-03-21T19:53:06.372Z,5.85
2023-03-21T19:56:20.723Z,5.82
2023-03-21T19:59:27.302Z,5.81
2023-03-21T20:02:36.518Z,5.77
2023-03-21T20:05:42.008Z,5.71
2023-03-21T20:12:10.399Z,5.52
2023-03-21T20:15:19.484Z,5.47
2023-03-21T20:18:24.990Z,5.43
2023-03-21T20:21:42.266Z,5.43
2023-03-21T20:24:51.742Z,5.43
2023-03-21T20:28:12.695Z,5.43
2023-03-21T20:31:19.402Z,5.39
2023-03-21T20:34:23.487Z,5.36
2023-03-21T20:37:27.537Z,5.30
2023-03-21T20:40:32.214Z,5.23
2023-03-21T20:44:25.498Z,5.17
2023-03-21T20:47:00.546Z,5.08
2023-03-21T20:50:11.297Z,5.03
2023-03-21T20:53:15.313Z,5.00
2023-03-21T20:56:20.775Z,4.98
2023-03-21T20:59:27.535Z,4.98
2023-03-21T21:02:32.281Z,4.97
2023-03-21T21:05:38.220Z,4.95
2023-03-21T21:08:43.181Z,4.89
2023-03-21T21:15:16.659Z,4.79
2023-03-21T21:18:21.124Z,4.72
2023-03-21T21:21:25.442Z,4.65
2023-03-21T21:24:29.496Z,4.63
2023-03-21T21:27:33.488Z,4.61
2023-03-21T21:30:41.537Z,4.59
2023-03-21T21:33:48.372Z,4.55
2023-03-21T21:36:52.406Z,4.48
2023-03-21T21:39:56.509Z,4.39
2023-03-21T21:43:03.620Z,4.34
2023-03-21T21:46:07.740Z,4.31
2023-03-21T21:49:11.739Z,4.27
2023-03-21T21:52:24.182Z,4.26
2023-03-21T21:55:28.164Z,4.27
2023-03-21T21:58:39.045Z,4.28
2023-03-21T22:01:42.974Z,4.28
2023-03-21T22:04:46.884Z,4.26
2023-03-21T22:07:53.872Z,4.19
2023-03-21T22:11:00.717Z,4.12
2023-03-21T22:14:04.606Z,4.10
2023-03-21T22:17:09.165Z,4.08
2023-03-21T22:20:15.202Z,4.07
2023-03-21T22:23:19.594Z,4.07
2023-03-21T22:26:23.840Z,4.06
2023-03-21T22:29:29.128Z,4.03
2023-03-21T22:32:34.948Z,3.99
2023-03-21T22:35:39.072Z,3.93
2023-03-21T22:38:43.982Z,3.87
2023-03-21T22:41:47.959Z,3.81
2023-03-21T22:44:51.987Z,3.76
2023-03-21T22:47:56.257Z,3.71
2023-03-21T22:51:01.038Z,3.67
2023-03-21T22:54:05.561Z,3.64
2023-03-21T22:57:09.504Z,3.65
2023-03-21T23:00:14.445Z,3.67
2023-03-21T23:03:18.736Z,3.68
2023-03-21T23:06:22.750Z,3.66
2023-03-21T23:09:27.398Z,3.64
2023-03-21T23:12:31.934Z,3.64
2023-03-21T23:15:36.020Z,3.63
2023-03-21T23:18:40.037Z,3.65
2023-03-21T23:21:44.571Z,3.67
2023-03-21T23:24:49.111Z,3.67
2023-03-21T23:27:53.220Z,3.66
2023-03-21T23:30:57.284Z,3.64
2023-03-21T23:34:02.043Z,3.60
2023-03-21T23:37:07.000Z,3.54
2023-03-21T23:40:12.721Z,3.47
2023-03-21T23:43:16.606Z,3.37
2023-03-21T23:46:20.986Z,3.28
2023-03-21T23:49:26.447Z,3.24
2023-03-21T23:52:30.549Z,3.21
2023-03-21T23:55:37.983Z,3.20
2023-03-21T23:58:42.177Z,3.19
